createdAt,value
2023-02-27T00:00:07.144Z,101324.51
2023-02-27T00:02:38.851Z,101331.09
2023-02-27T00:05:08.649Z,101326.76
2023-02-27T00:07:36.927Z,101327.14
2023-02-27T00:10:05.601Z,101328.03
2023-02-27T00:12:39.940Z,101323.36
2023-02-27T00:15:13.260Z,101314.41
2023-02-27T00:17:47.210Z,101311.64
2023-02-27T00:20:16.558Z,101308.00
2023-02-27T00:22:46.384Z,101303.83
2023-02-27T00:25:15.276Z,101304.67
2023-02-27T00:27:43.950Z,101309.17
2023-02-27T00:30:13.873Z,101315.05
2023-02-27T00:32:44.071Z,101318.00
2023-02-27T00:35:12.330Z,101319.25
2023-02-27T00:37:40.783Z,101312.67
2023-02-27T00:40:09.769Z,101320.13
2023-02-27T00:42:38.067Z,101318.05
2023-02-27T00:45:06.922Z,101313.58
2023-02-27T00:47:35.276Z,101318.79
2023-02-27T00:50:03.648Z,101325.89
2023-02-27T00:52:33.826Z,101327.46
2023-02-27T00:55:02.516Z,101321.73
2023-02-27T00:57:30.982Z,101320.71
2023-02-27T01:00:00.087Z,101318.84
2023-02-27T01:02:28.560Z,101321.12
2023-02-27T01:04:57.459Z,101329.79
2023-02-27T01:07:25.731Z,101325.62
2023-02-27T01:09:54.931Z,101329.77
2023-02-27T01:12:23.282Z,101335.85
2023-02-27T01:14:51.689Z,101340.20
2023-02-27T01:17:20.637Z,101347.15
2023-02-27T01:19:48.923Z,101348.69
2023-02-27T01:22:17.396Z,101349.67
2023-02-27T01:24:47.576Z,101356.55
2023-02-27T01:27:16.036Z,101356.55
2023-02-27T01:29:45.235Z,101359.15
2023-02-27T01:32:13.859Z,101362.41
2023-02-27T01:34:42.103Z,101364.29
2023-02-27T01:37:10.284Z,101364.45
2023-02-27T01:39:38.908Z,101360.96
2023-02-27T01:42:20.976Z,101365.10
2023-02-27T01:45:07.824Z,101366.46
2023-02-27T01:47:36.421Z,101365.20
2023-02-27T01:50:07.167Z,101362.74
2023-02-27T01:52:39.184Z,101358.19
2023-02-27T01:55:08.772Z,101356.26
2023-02-27T01:57:37.429Z,101351.42
2023-02-27T02:00:06.360Z,101353.91
2023-02-27T02:02:44.759Z,101355.01
2023-02-27T02:05:15.656Z,101355.02
2023-02-27T02:07:44.001Z,101358.32
2023-02-27T02:10:13.128Z,101364.58
2023-02-27T02:12:41.344Z,101369.59
2023-02-27T02:15:13.603Z,101369.25
2023-02-27T02:18:14.960Z,101368.89
2023-02-27T02:20:52.947Z,101364.41
2023-02-27T02:23:30.847Z,101363.58
2023-02-27T02:26:38.507Z,101364.96
2023-02-27T02:29:17.258Z,101362.36
2023-02-27T02:31:53.977Z,101363.56
2023-02-27T02:34:46.271Z,101369.14
2023-02-27T02:37:26.730Z,101370.70
2023-02-27T02:40:07.048Z,101373.33
2023-02-27T02:42:43.704Z,101384.44
2023-02-27T02:45:19.149Z,101390.34
2023-02-27T02:48:08.886Z,101385.33
2023-02-27T02:50:48.962Z,101393.15
2023-02-27T02:53:39.582Z,101391.79
2023-02-27T02:56:16.041Z,101391.96
2023-02-27T02:58:51.475Z,101399.42
2023-02-27T03:01:26.835Z,101401.84
2023-02-27T03:03:57.426Z,101412.21
2023-02-27T03:06:30.942Z,101421.54
2023-02-27T03:09:08.046Z,101423.40
2023-02-27T03:11:41.361Z,101421.98
2023-02-27T03:14:22.963Z,101427.86
2023-02-27T03:16:53.391Z,101442.39
2023-02-27T03:19:24.343Z,101445.80
2023-02-27T03:22:06.981Z,101445.58
2023-02-27T03:24:40.492Z,101442.03
2023-02-27T03:27:10.199Z,101434.52
2023-02-27T03:29:42.762Z,101426.17
2023-02-27T03:32:23.425Z,101424.10
2023-02-27T03:34:51.953Z,101422.55
2023-02-27T03:37:38.329Z,101422.02
2023-02-27T03:40:06.948Z,101428.09
2023-02-27T03:42:35.528Z,101431.39
2023-02-27T03:45:15.794Z,101439.88
2023-02-27T03:47:44.795Z,101441.43
2023-02-27T03:50:13.725Z,101451.86
2023-02-27T03:52:42.300Z,101462.95
2023-02-27T03:55:16.208Z,101463.45
2023-02-27T03:57:45.673Z,101470.55
2023-02-27T04:00:16.718Z,101462.40
2023-02-27T04:02:50.734Z,101459.45
2023-02-27T04:05:21.664Z,101453.92
2023-02-27T04:08:13.477Z,101454.30
2023-02-27T04:11:06.514Z,101457.10
2023-02-27T04:13:40.907Z,101462.66
2023-02-27T04:16:35.526Z,101459.91
2023-02-27T04:19:12.982Z,101455.23
2023-02-27T04:21:48.794Z,101454.17
2023-02-27T04:24:37.623Z,101448.42
2023-02-27T04:27:28.945Z,101447.19
2023-02-27T04:30:23.895Z,101443.70
2023-02-27T04:32:56.059Z,101452.86
2023-02-27T04:35:26.850Z,101454.77
2023-02-27T04:38:04.014Z,101454.58
2023-02-27T04:40:36.332Z,101450.21
2023-02-27T04:43:04.634Z,101444.29
2023-02-27T04:45:33.602Z,101441.32
2023-02-27T04:48:14.912Z,101448.96
2023-02-27T04:50:50.268Z,101445.71
2023-02-27T04:53:25.612Z,101451.80
2023-02-27T04:55:56.022Z,101459.12
2023-02-27T04:58:31.697Z,101464.34
2023-02-27T05:01:05.604Z,101466.44
2023-02-27T05:03:36.541Z,101468.00
2023-02-27T05:06:05.050Z,101468.34
2023-02-27T05:08:52.995Z,101471.27
2023-02-27T05:11:29.380Z,101473.84
2023-02-27T05:14:04.292Z,101471.54
2023-02-27T05:16:39.672Z,101474.33
2023-02-27T05:19:08.664Z,101489.91
2023-02-27T05:21:39.645Z,101487.83
2023-02-27T05:24:22.295Z,101485.06
2023-02-27T05:27:12.076Z,101487.33
2023-02-27T05:29:54.026Z,101498.91
2023-02-27T05:32:34.210Z,101511.58
2023-02-27T05:35:03.386Z,101515.17
2023-02-27T05:37:34.775Z,101525.38
2023-02-27T05:40:08.541Z,101524.32
2023-02-27T05:42:50.587Z,101520.98
2023-02-27T05:45:23.593Z,101517.58
2023-02-27T05:48:28.066Z,101525.58
2023-02-27T05:50:56.191Z,101526.96
2023-02-27T05:53:29.768Z,101533.87
2023-02-27T05:55:59.646Z,101539.04
2023-02-27T05:58:34.642Z,101543.19
2023-02-27T06:01:04.584Z,101549.02
2023-02-27T06:03:34.084Z,101545.68
2023-02-27T06:06:04.094Z,101547.91
2023-02-27T06:08:32.525Z,101546.12
2023-02-27T06:11:00.936Z,101552.34
2023-02-27T06:13:29.601Z,101564.63
2023-02-27T06:15:57.760Z,101564.79
2023-02-27T06:18:26.144Z,101568.58
2023-02-27T06:20:55.003Z,101563.73
2023-02-27T06:23:25.495Z,101544.79
2023-02-27T06:25:54.078Z,101525.55
2023-02-27T06:28:22.242Z,101529.42
2023-02-27T06:30:57.399Z,101537.98
2023-02-27T06:33:26.354Z,101539.08
2023-02-27T06:35:54.798Z,101527.15
2023-02-27T06:38:22.991Z,101520.95
2023-02-27T06:40:51.795Z,101519.45
2023-02-27T06:43:23.266Z,101529.23
2023-02-27T06:45:56.068Z,101540.26
2023-02-27T06:48:24.446Z,101551.43
2023-02-27T06:50:56.449Z,101549.54
2023-02-27T06:53:25.861Z,101551.29
2023-02-27T06:55:54.020Z,101562.41
2023-02-27T06:58:25.078Z,101571.28
2023-02-27T07:00:53.233Z,101570.94
2023-02-27T07:03:21.391Z,101569.39
2023-02-27T07:05:50.526Z,101569.04
2023-02-27T07:08:19.453Z,101568.14
2023-02-27T07:10:49.299Z,101577.84
2023-02-27T07:13:19.656Z,101584.59
2023-02-27T07:15:50.858Z,101586.82
2023-02-27T07:18:20.010Z,101577.80
2023-02-27T07:20:51.769Z,101572.59
2023-02-27T07:23:21.153Z,101567.34
2023-02-27T07:25:53.988Z,101564.71
2023-02-27T07:28:22.533Z,101564.02
2023-02-27T07:30:53.809Z,101562.30
2023-02-27T07:33:23.901Z,101568.37
2023-02-27T07:35:52.133Z,101558.31
2023-02-27T07:38:23.010Z,101557.25
2023-02-27T07:40:53.433Z,101559.05
2023-02-27T07:43:22.227Z,101566.99
2023-02-27T07:45:51.248Z,101580.86
2023-02-27T07:48:19.537Z,101589.81
2023-02-27T07:50:47.902Z,101600.69
2023-02-27T07:53:16.526Z,101607.21
2023-02-27T07:55:46.753Z,101602.83
2023-02-27T07:58:20.413Z,101599.15
2023-02-27T08:00:48.680Z,101604.20
2023-02-27T08:03:16.829Z,101610.28
2023-02-27T08:05:45.298Z,101611.65
2023-02-27T08:08:13.670Z,101601.58
2023-02-27T08:10:43.616Z,101605.55
2023-02-27T08:13:11.948Z,101608.33
2023-02-27T08:15:40.078Z,101614.23
2023-02-27T08:18:27.204Z,101619.30
2023-02-27T08:20:56.984Z,101625.20
2023-02-27T08:23:28.978Z,101631.15
2023-02-27T08:25:58.451Z,101630.28
2023-02-27T08:28:27.842Z,101628.38
2023-02-27T08:30:56.434Z,101621.52
2023-02-27T08:33:24.916Z,101613.48
2023-02-27T08:35:54.678Z,101608.73
2023-02-27T08:38:24.833Z,101620.05
2023-02-27T08:40:54.914Z,101626.30
2023-02-27T08:43:23.283Z,101623.83
2023-02-27T08:48:30.286Z,101623.42
2023-02-27T08:50:59.280Z,101626.69
2023-02-27T08:53:28.684Z,101629.45
2023-02-27T08:55:57.679Z,101635.14
2023-02-27T08:58:26.681Z,101625.23
2023-02-27T09:00:57.346Z,101629.95
2023-02-27T09:03:28.954Z,101632.22
2023-02-27T09:05:57.533Z,101647.30
2023-02-27T09:08:26.132Z,101646.59
2023-02-27T09:10:57.988Z,101635.50
2023-02-27T09:13:27.070Z,101625.12
2023-02-27T09:15:55.672Z,101621.13
2023-02-27T09:18:25.384Z,101618.89
2023-02-27T09:20:53.753Z,101611.45
2023-02-27T09:23:22.340Z,101614.05
2023-02-27T09:25:50.795Z,101623.06
2023-02-27T09:28:20.314Z,101626.36
2023-02-27T09:30:49.205Z,101626.57
2023-02-27T09:33:17.894Z,101624.69
2023-02-27T09:35:49.166Z,101624.84
2023-02-27T09:38:17.520Z,101620.30
2023-02-27T09:40:45.914Z,101624.60
2023-02-27T09:43:17.362Z,101617.33
2023-02-27T09:45:47.169Z,101606.95
2023-02-27T09:48:32.427Z,101602.30
2023-02-27T09:51:01.112Z,101610.96
2023-02-27T09:53:38.425Z,101621.21
2023-02-27T09:56:29.444Z,101623.27
2023-02-27T09:59:32.506Z,101624.77
2023-02-27T10:02:16.272Z,101629.08
2023-02-27T10:04:56.123Z,101625.52
2023-02-27T10:07:48.692Z,101629.27
2023-02-27T10:10:17.115Z,101625.23
2023-02-27T10:13:11.706Z,101623.98
2023-02-27T10:15:46.748Z,101615.29
2023-02-27T10:18:34.832Z,101616.34
2023-02-27T10:21:07.898Z,101618.80
2023-02-27T10:23:39.730Z,101619.70
2023-02-27T10:26:11.385Z,101616.96
2023-02-27T10:28:39.965Z,101617.00
2023-02-27T10:31:15.364Z,101613.72
2023-02-27T10:33:44.504Z,101608.48
2023-02-27T10:36:23.620Z,101609.34
2023-02-27T10:39:01.365Z,101615.23
2023-02-27T10:41:30.179Z,101620.62
2023-02-27T10:43:59.793Z,101622.34
2023-02-27T10:46:38.821Z,101620.20
2023-02-27T10:49:15.681Z,101619.47
2023-02-27T10:51:44.871Z,101621.54
2023-02-27T10:54:21.087Z,101621.30
2023-02-27T10:56:57.051Z,101620.70
2023-02-27T10:59:40.800Z,101623.83
2023-02-27T11:02:18.173Z,101621.61
2023-02-27T11:04:54.247Z,101617.85
2023-02-27T11:07:38.886Z,101613.73
2023-02-27T11:10:13.429Z,101602.70
2023-02-27T11:12:43.627Z,101604.64
2023-02-27T11:15:16.448Z,101610.52
2023-02-27T11:17:44.785Z,101608.94
2023-02-27T11:20:32.010Z,101606.34
2023-02-27T11:23:15.248Z,101609.44
2023-02-27T11:25:44.365Z,101611.80
2023-02-27T11:28:24.079Z,101614.69
2023-02-27T11:31:08.087Z,101617.98
2023-02-27T11:33:40.087Z,101620.73
2023-02-27T11:36:11.669Z,101620.73
2023-02-27T11:38:55.070Z,101618.48
2023-02-27T11:41:30.685Z,101618.65
2023-02-27T11:43:59.202Z,101618.27
2023-02-27T11:46:46.992Z,101617.70
2023-02-27T11:49:19.618Z,101620.09
2023-02-27T11:52:01.304Z,101621.48
2023-02-27T11:54:55.613Z,101621.77
2023-02-27T11:57:35.349Z,101628.17
2023-02-27T12:00:18.149Z,101625.89
2023-02-27T12:03:04.799Z,101628.12
2023-02-27T12:05:50.936Z,101621.33
2023-02-27T12:08:25.825Z,101616.94
2023-02-27T12:11:18.533Z,101614.77
2023-02-27T12:13:54.159Z,101615.59
2023-02-27T12:16:54.333Z,101620.64
2023-02-27T12:19:26.851Z,101626.30
2023-02-27T12:22:25.571Z,101628.34
2023-02-27T12:25:14.324Z,101618.45
2023-02-27T12:27:49.457Z,101600.39
2023-02-27T12:30:43.130Z,101597.27
2023-02-27T12:33:22.664Z,101593.58
2023-02-27T12:35:58.934Z,101600.48
2023-02-27T12:38:27.510Z,101620.59
2023-02-27T12:41:41.966Z,101621.20
2023-02-27T12:44:31.951Z,101622.00
2023-02-27T12:47:25.212Z,101627.32
2023-02-27T12:50:02.696Z,101631.90
2023-02-27T12:52:37.236Z,101635.96
2023-02-27T12:55:27.330Z,101640.39
2023-02-27T12:58:07.975Z,101639.84
2023-02-27T13:00:41.786Z,101643.83
2023-02-27T13:03:25.415Z,101650.58
2023-02-27T13:05:56.662Z,101665.35
2023-02-27T13:08:38.662Z,101671.45
2023-02-27T13:11:43.812Z,101670.74
2023-02-27T13:14:28.465Z,101689.17
2023-02-27T13:17:19.594Z,101703.98
2023-02-27T13:20:19.288Z,101707.14
2023-02-27T13:23:11.528Z,101711.50
2023-02-27T13:25:40.012Z,101721.58
2023-02-27T13:28:11.434Z,101723.42
2023-02-27T13:30:41.990Z,101723.91
2023-02-27T13:33:12.865Z,101709.10
2023-02-27T13:36:01.004Z,101696.06
2023-02-27T13:38:33.764Z,101692.41
2023-02-27T13:41:20.468Z,101702.33
2023-02-27T13:43:53.320Z,101693.48
2023-02-27T13:46:29.276Z,101678.88
2023-02-27T13:49:12.538Z,101665.02
2023-02-27T13:51:49.981Z,101659.91
2023-02-27T13:54:23.617Z,101678.41
2023-02-27T13:56:55.417Z,101683.33
2023-02-27T13:59:41.984Z,101679.02
2023-02-27T14:02:13.070Z,101679.70
2023-02-27T14:04:48.952Z,101687.52
2023-02-27T14:07:21.732Z,101685.56
2023-02-27T14:09:53.818Z,101688.39
2023-02-27T14:12:45.789Z,101692.09
2023-02-27T14:15:16.577Z,101701.92
2023-02-27T14:17:54.438Z,101709.80
2023-02-27T14:20:27.802Z,101724.45
2023-02-27T14:23:15.596Z,101729.71
2023-02-27T14:25:54.444Z,101725.11
2023-02-27T14:28:26.208Z,101722.38
2023-02-27T14:31:09.114Z,101727.08
2023-02-27T14:33:48.408Z,101739.91
2023-02-27T14:36:22.070Z,101760.05
2023-02-27T14:38:50.928Z,101778.30
2023-02-27T14:41:45.213Z,101796.21
2023-02-27T14:44:23.869Z,101809.38
2023-02-27T14:46:53.953Z,101821.11
2023-02-27T14:49:30.521Z,101833.72
2023-02-27T14:52:15.184Z,101845.29
2023-02-27T14:54:45.122Z,101852.69
2023-02-27T14:57:21.871Z,101849.14
2023-02-27T14:59:51.824Z,101856.98
2023-02-27T15:02:33.887Z,101866.73
2023-02-27T15:05:02.778Z,101872.82
2023-02-27T15:07:33.408Z,101869.34
2023-02-27T15:10:05.589Z,101870.20
2023-02-27T15:12:37.563Z,101873.84
2023-02-27T15:15:08.084Z,101876.06
2023-02-27T15:17:41.876Z,101876.23
2023-02-27T15:20:24.915Z,101876.40
2023-02-27T15:22:53.786Z,101879.80
2023-02-27T15:25:37.744Z,101876.61
2023-02-27T15:28:08.691Z,101878.81
2023-02-27T15:30:37.564Z,101893.86
2023-02-27T15:33:12.400Z,101900.17
2023-02-27T15:35:42.784Z,101903.70
2023-02-27T15:38:24.294Z,101916.58
2023-02-27T15:40:53.086Z,101933.77
2023-02-27T15:43:21.687Z,101946.81
2023-02-27T15:45:50.144Z,101947.67
2023-02-27T15:48:18.838Z,101942.29
2023-02-27T15:50:56.118Z,101949.77
2023-02-27T15:53:28.615Z,101948.22
2023-02-27T15:55:59.132Z,101940.23
2023-02-27T15:58:35.555Z,101949.59
2023-02-27T16:01:17.924Z,101960.52
2023-02-27T16:03:48.154Z,101971.13
2023-02-27T16:06:26.955Z,101970.10
2023-02-27T16:09:00.656Z,101973.74
2023-02-27T16:11:34.745Z,101987.80
2023-02-27T16:14:03.944Z,101995.26
2023-02-27T16:16:37.740Z,101995.61
2023-02-27T16:19:24.562Z,102006.20
2023-02-27T16:22:16.297Z,102017.64
2023-02-27T16:24:45.320Z,102018.67
2023-02-27T16:27:18.927Z,102022.48
2023-02-27T16:29:47.259Z,102028.01
2023-02-27T16:32:24.942Z,102035.80
2023-02-27T16:35:06.130Z,102048.98
2023-02-27T16:37:39.033Z,102047.94
2023-02-27T16:40:14.058Z,102057.64
2023-02-27T16:42:43.252Z,102057.99
2023-02-27T16:45:16.130Z,102052.62
2023-02-27T16:47:45.680Z,102055.90
2023-02-27T16:50:27.225Z,102064.39
2023-02-27T16:52:57.391Z,102070.98
2023-02-27T16:55:33.636Z,102073.59
2023-02-27T16:58:02.594Z,102074.80
2023-02-27T17:00:31.081Z,102076.87
2023-02-27T17:02:59.767Z,102078.43
2023-02-27T17:05:28.960Z,102085.02
2023-02-27T17:07:58.057Z,102089.00
2023-02-27T17:10:26.773Z,102095.06
2023-02-27T17:12:58.206Z,102094.70
2023-02-27T17:15:29.446Z,102094.88
2023-02-27T17:17:57.922Z,102098.34
2023-02-27T17:20:28.168Z,102101.46
2023-02-27T17:23:00.034Z,102097.11
2023-02-27T17:25:28.685Z,102091.05
2023-02-27T17:27:57.167Z,102097.97
2023-02-27T17:30:25.907Z,102098.98
2023-02-27T17:32:54.640Z,102097.40
2023-02-27T17:35:23.253Z,102100.00
2023-02-27T17:37:51.912Z,102107.45
2023-02-27T17:40:24.690Z,102118.20
2023-02-27T17:42:53.375Z,102130.68
2023-02-27T17:45:22.061Z,102136.94
2023-02-27T17:47:50.746Z,102138.64
2023-02-27T17:50:19.327Z,102137.61
2023-02-27T17:52:47.929Z,102138.30
2023-02-27T17:55:17.208Z,102145.40
2023-02-27T17:57:46.412Z,102145.24
2023-02-27T18:00:15.624Z,102150.97
2023-02-27T18:02:48.323Z,102157.89
2023-02-27T18:05:17.271Z,102173.15
2023-02-27T18:07:45.956Z,102180.75
2023-02-27T18:10:16.078Z,102184.19
2023-02-27T18:12:44.463Z,102184.67
2023-02-27T18:15:12.832Z,102192.98
2023-02-27T18:17:43.363Z,102204.05
2023-02-27T18:20:12.660Z,102218.10
2023-02-27T18:22:42.077Z,102225.40
2023-02-27T18:25:10.642Z,102223.98
2023-02-27T18:27:39.227Z,102223.45
2023-02-27T18:30:08.399Z,102223.80
2023-02-27T18:32:38.980Z,102228.30
2023-02-27T18:35:08.050Z,102230.90
2023-02-27T18:37:36.339Z,102225.49
2023-02-27T18:40:06.249Z,102226.91
2023-02-27T18:42:36.873Z,102225.89
2023-02-27T18:45:06.380Z,102225.18
2023-02-27T18:47:34.958Z,102232.42
2023-02-27T18:50:03.333Z,102238.43
2023-02-27T18:52:32.432Z,102249.30
2023-02-27T18:55:00.806Z,102253.96
2023-02-27T18:57:31.645Z,102259.19
2023-02-27T19:00:00.641Z,102263.54
2023-02-27T19:02:29.123Z,102263.38
2023-02-27T19:04:57.493Z,102263.41
2023-02-27T19:07:26.079Z,102262.37
2023-02-27T19:09:57.337Z,102263.92
2023-02-27T19:12:25.903Z,102259.74
2023-02-27T19:14:57.465Z,102268.20
2023-02-27T19:17:26.253Z,102273.23
2023-02-27T19:19:54.727Z,102284.98
2023-02-27T19:22:23.517Z,102289.30
2023-02-27T19:24:52.616Z,102292.59
2023-02-27T19:27:20.991Z,102290.35
2023-02-27T19:29:49.696Z,102285.69
2023-02-27T19:32:18.606Z,102286.71
2023-02-27T19:34:47.157Z,102287.21
2023-02-27T19:37:17.116Z,102289.77
2023-02-27T19:39:45.468Z,102290.10
2023-02-27T19:42:14.020Z,102288.20
2023-02-27T19:44:43.542Z,102284.88
2023-02-27T19:47:13.285Z,102282.77
2023-02-27T19:49:42.237Z,102283.98
2023-02-27T19:52:13.476Z,102286.02
2023-02-27T19:54:42.569Z,102289.28
2023-02-27T19:57:15.039Z,102283.02
2023-02-27T19:59:43.724Z,102287.84
2023-02-27T20:02:12.328Z,102296.82
2023-02-27T20:04:41.004Z,102302.86
2023-02-27T20:07:09.989Z,102310.67
2023-02-27T20:09:39.488Z,102320.03
2023-02-27T20:12:09.521Z,102320.20
2023-02-27T20:14:38.701Z,102324.90
2023-02-27T20:17:08.308Z,102331.31
2023-02-27T20:19:36.792Z,102330.29
2023-02-27T20:22:05.174Z,102334.60
2023-02-27T20:24:33.954Z,102343.05
2023-02-27T20:27:05.049Z,102342.84
2023-02-27T20:29:33.373Z,102354.03
2023-02-27T20:32:02.386Z,102351.65
2023-02-27T20:34:31.156Z,102359.39
2023-02-27T20:37:00.585Z,102363.55
2023-02-27T20:39:30.283Z,102373.49
2023-02-27T20:41:59.051Z,102377.77
2023-02-27T20:44:27.880Z,102383.52
2023-02-27T20:46:56.225Z,102395.27
2023-02-27T20:49:28.180Z,102390.43
2023-02-27T20:51:58.094Z,102388.96
2023-02-27T20:54:26.378Z,102394.48
2023-02-27T20:56:54.957Z,102404.83
2023-02-27T20:59:25.403Z,102415.15
2023-02-27T21:01:54.923Z,102418.40
2023-02-27T21:04:46.298Z,102426.94
2023-02-27T21:07:17.412Z,102432.08
2023-02-27T21:09:45.881Z,102436.02
2023-02-27T21:12:15.643Z,102441.61
2023-02-27T21:14:44.626Z,102448.89
2023-02-27T21:17:14.039Z,102455.38
2023-02-27T21:19:44.664Z,102460.34
2023-02-27T21:22:14.575Z,102457.75
2023-02-27T21:24:43.158Z,102460.70
2023-02-27T21:27:11.740Z,102471.40
2023-02-27T21:29:40.225Z,102474.49
2023-02-27T21:32:08.655Z,102480.52
2023-02-27T21:34:37.282Z,102482.23
2023-02-27T21:37:07.608Z,102477.36
2023-02-27T21:39:50.731Z,102475.06
2023-02-27T21:42:19.014Z,102475.38
2023-02-27T21:44:47.859Z,102480.69
2023-02-27T21:47:17.406Z,102487.58
2023-02-27T21:49:47.417Z,102495.02
2023-02-27T21:52:16.001Z,102495.23
2023-02-27T21:54:44.798Z,102493.01
2023-02-27T21:57:13.062Z,102496.48
2023-02-27T21:59:42.772Z,102504.95
2023-02-27T22:02:11.664Z,102504.80
2023-02-27T22:04:40.861Z,102505.50
2023-02-27T22:07:11.374Z,102509.63
2023-02-27T22:09:46.020Z,102504.73
2023-02-27T22:12:16.282Z,102494.80
2023-02-27T22:14:44.837Z,102499.84
2023-02-27T22:17:13.095Z,102506.80
2023-02-27T22:19:41.879Z,102508.84
2023-02-27T22:22:10.262Z,102505.66
2023-02-27T22:24:42.323Z,102508.34
2023-02-27T22:27:11.114Z,102506.40
2023-02-27T22:29:42.203Z,102510.39
2023-02-27T22:32:11.715Z,102515.20
2023-02-27T22:34:44.841Z,102521.52
2023-02-27T22:37:16.403Z,102515.81
2023-02-27T22:39:44.579Z,102514.93
2023-02-27T22:42:12.905Z,102516.73
2023-02-27T22:44:41.435Z,102518.23
2023-02-27T22:47:10.527Z,102518.42
2023-02-27T22:49:40.136Z,102526.27
2023-02-27T22:52:08.620Z,102526.02
2023-02-27T22:54:37.093Z,102529.64
2023-02-27T22:57:06.494Z,102532.92
2023-02-27T22:59:37.021Z,102536.56
2023-02-27T23:02:06.538Z,102540.42
2023-02-27T23:04:34.909Z,102545.16
2023-02-27T23:07:03.589Z,102549.30
2023-02-27T23:09:32.688Z,102554.22
2023-02-27T23:12:04.551Z,102555.70
2023-02-27T23:14:34.047Z,102554.14
2023-02-27T23:17:02.429Z,102556.17
2023-02-27T23:19:32.564Z,102564.08
2023-02-27T23:22:06.660Z,102568.33
2023-02-27T23:24:38.726Z,102568.16
2023-02-27T23:27:25.340Z,102576.61
2023-02-27T23:29:55.455Z,102585.77
2023-02-27T23:32:24.286Z,102590.86
2023-02-27T23:34:53.118Z,102594.86
2023-02-27T23:37:21.502Z,102588.77
2023-02-27T23:39:54.281Z,102587.27
2023-02-27T23:42:23.299Z,102592.05
2023-02-27T23:44:51.755Z,102592.88
2023-02-27T23:47:39.098Z,102602.11
2023-02-27T23:50:08.276Z,102603.55
2023-02-27T23:52:37.071Z,102603.59
2023-02-27T23:55:06.775Z,102602.52
2023-02-27T23:57:35.254Z,102607.46
